sensor_id;sensor_type;location;lat;lon;timestamp;pressure;altitude;pressure_sealevel;temperature;humidity
27685;BME280;46113;50.130;8.526;2023-01-19T05:16:36;99054.00;;;-4.10;68.67
27685;BME280;46113;50.130;8.526;2023-01-19T05:19:03;99046.16;;;-3.66;68.05
27685;BME280;46113;50.130;8.526;2023-01-19T05:21:29;99053.03;;;-3.57;67.50
27685;BME280;46113;50.130;8.526;2023-01-19T05:23:56;99048.63;;;-3.38;67.31
27685;BME280;46113;50.130;8.526;2023-01-19T05:26:23;99047.88;;;-3.66;67.65
27685;BME280;46113;50.130;8.526;2023-01-19T05:28:50;99056.50;;;-3.66;67.38
27685;BME280;46113;50.130;8.526;2023-01-19T05:31:19;99056.47;;;-3.47;67.36
27685;BME280;46113;50.130;8.526;2023-01-19T05:33:46;99073.75;;;-3.74;68.00
27685;BME280;46113;50.130;8.526;2023-01-19T05:36:14;99064.22;;;-3.53;68.05
27685;BME280;46113;50.130;8.526;2023-01-19T05:38:40;99062.56;;;-3.75;68.18
27685;BME280;46113;50.130;8.526;2023-01-19T05:41:07;99072.06;;;-3.91;68.25
27685;BME280;46113;50.130;8.526;2023-01-19T05:43:33;99065.16;;;-3.78;68.74
27685;BME280;46113;50.130;8.526;2023-01-19T05:46:02;99068.56;;;-3.65;68.03
27685;BME280;46113;50.130;8.526;2023-01-19T05:48:29;99074.56;;;-3.49;68.40
27685;BME280;46113;50.130;8.526;2023-01-19T05:50:57;99068.50;;;-3.38;67.52
27685;BME280;46113;50.130;8.526;2023-01-19T05:53:24;99078.91;;;-3.62;68.18
27685;BME280;46113;50.130;8.526;2023-01-19T05:55:51;99085.81;;;-3.58;68.59
27685;BME280;46113;50.130;8.526;2023-01-19T05:58:21;99083.28;;;-3.83;69.52
27685;BME280;46113;50.130;8.526;2023-01-19T06:00:47;99078.94;;;-3.84;69.56
27685;BME280;46113;50.130;8.526;2023-01-19T06:03:14;99078.09;;;-3.86;69.74
27685;BME280;46113;50.130;8.526;2023-01-19T06:05:41;99086.69;;;-3.66;69.67
27685;BME280;46113;50.130;8.526;2023-01-19T06:08:07;99078.09;;;-3.73;69.71
27685;BME280;46113;50.130;8.526;2023-01-19T06:10:34;99092.72;;;-3.55;69.27
27685;BME280;46113;50.130;8.526;2023-01-19T06:13:00;99093.44;;;-3.20;67.78
27685;BME280;46113;50.130;8.526;2023-01-19T06:15:27;99091.03;;;-3.86;69.93
27685;BME280;46113;50.130;8.526;2023-01-19T06:17:54;99090.06;;;-3.39;68.71
27685;BME280;46113;50.130;8.526;2023-01-19T06:20:21;99094.41;;;-3.46;68.85
27685;BME280;46113;50.130;8.526;2023-01-19T06:22:47;99094.44;;;-3.52;69.16
27685;BME280;46113;50.130;8.526;2023-01-19T06:25:14;99096.09;;;-3.33;68.38
27685;BME280;46113;50.130;8.526;2023-01-19T06:27:44;99091.84;;;-3.56;68.89
27685;BME280;46113;50.130;8.526;2023-01-19T06:30:12;99097.81;;;-3.33;68.37
27685;BME280;46113;50.130;8.526;2023-01-19T06:32:39;99107.31;;;-3.43;68.48
27685;BME280;46113;50.130;8.526;2023-01-19T06:35:06;99094.03;;;-2.68;66.50
27685;BME280;46113;50.130;8.526;2023-01-19T06:37:33;99102.78;;;-2.82;66.52
27685;BME280;46113;50.130;8.526;2023-01-19T06:40:00;99100.22;;;-2.90;65.92
27685;BME280;46113;50.130;8.526;2023-01-19T06:42:27;99105.47;;;-3.10;67.25
27685;BME280;46113;50.130;8.526;2023-01-19T06:44:53;99090.66;;;-2.80;67.08
27685;BME280;46113;50.130;8.526;2023-01-19T06:47:20;99098.66;;;-3.28;67.57
27685;BME280;46113;50.130;8.526;2023-01-19T06:49:47;99097.81;;;-3.35;68.35
27685;BME280;46113;50.130;8.526;2023-01-19T06:52:14;99108.06;;;-3.07;67.21
27685;BME280;46113;50.130;8.526;2023-01-19T06:54:45;99101.09;;;-2.92;67.15
27685;BME280;46113;50.130;8.526;2023-01-19T06:57:13;99112.34;;;-2.96;67.00
27685;BME280;46113;50.130;8.526;2023-01-19T06:59:43;99101.72;;;-2.51;66.77
27685;BME280;46113;50.130;8.526;2023-01-19T07:02:10;99114.88;;;-2.90;66.80
27685;BME280;46113;50.130;8.526;2023-01-19T07:04:59;99106.16;;;-2.72;66.67
27685;BME280;46113;50.130;8.526;2023-01-19T07:07:52;99104.63;;;-3.18;67.85
27685;BME280;46113;50.130;8.526;2023-01-19T07:10:20;99095.94;;;-2.98;67.67
27685;BME280;46113;50.130;8.526;2023-01-19T07:12:47;99104.44;;;-2.75;67.14
27685;BME280;46113;50.130;8.526;2023-01-19T07:15:15;99108.75;;;-2.75;67.23
27685;BME280;46113;50.130;8.526;2023-01-19T07:17:42;99109.75;;;-2.99;67.67
27685;BME280;46113;50.130;8.526;2023-01-19T07:20:10;99108.50;;;-2.31;66.20
27685;BME280;46113;50.130;8.526;2023-01-19T07:22:40;99106.84;;;-2.42;66.21
27685;BME280;46113;50.130;8.526;2023-01-19T07:25:07;99107.41;;;-2.01;64.80
27685;BME280;46113;50.130;8.526;2023-01-19T07:27:35;99112.97;;;-2.57;66.38
27685;BME280;46113;50.130;8.526;2023-01-19T07:30:02;99117.41;;;-2.73;66.60
27685;BME280;46113;50.130;8.526;2023-01-19T07:32:30;99117.97;;;-2.26;66.00
27685;BME280;46113;50.130;8.526;2023-01-19T07:34:56;99121.28;;;-2.10;65.16
27685;BME280;46113;50.130;8.526;2023-01-19T07:37:23;99121.56;;;-2.44;65.53
27685;BME280;46113;50.130;8.526;2023-01-19T07:39:49;99120.50;;;-2.18;65.34
27685;BME280;46113;50.130;8.526;2023-01-19T07:42:15;99117.81;;;-2.07;65.03
27685;BME280;46113;50.130;8.526;2023-01-19T07:44:42;99111.69;;;-1.98;65.13
27685;BME280;46113;50.130;8.526;2023-01-19T07:47:08;99111.72;;;-2.03;65.15
27685;BME280;46113;50.130;8.526;2023-01-19T07:49:38;99112.16;;;-1.56;63.96
27685;BME280;46113;50.130;8.526;2023-01-19T07:52:05;99115.16;;;-1.99;64.72
27685;BME280;46113;50.130;8.526;2023-01-19T07:54:31;99114.94;;;-1.76;64.65
27685;BME280;46113;50.130;8.526;2023-01-19T07:56:58;99116.84;;;-1.93;64.75
27685;BME280;46113;50.130;8.526;2023-01-19T07:59:29;99115.38;;;-1.33;63.71
27685;BME280;46113;50.130;8.526;2023-01-19T08:01:57;99121.09;;;-1.05;63.30
27685;BME280;46113;50.130;8.526;2023-01-19T08:04:25;99123.63;;;-1.00;63.24
27685;BME280;46113;50.130;8.526;2023-01-19T08:06:53;99127.69;;;-0.77;62.16
27685;BME280;46113;50.130;8.526;2023-01-19T08:09:22;99120.56;;;-0.61;62.29
27685;BME280;46113;50.130;8.526;2023-01-19T08:11:49;99126.44;;;-0.48;61.25
27685;BME280;46113;50.130;8.526;2023-01-19T08:14:16;99128.06;;;-0.41;61.37
27685;BME280;46113;50.130;8.526;2023-01-19T08:16:42;99128.91;;;-0.39;61.43
27685;BME280;46113;50.130;8.526;2023-01-19T08:19:09;99133.78;;;-0.18;61.15
27685;BME280;46113;50.130;8.526;2023-01-19T08:21:35;99134.69;;;-0.19;60.45
27685;BME280;46113;50.130;8.526;2023-01-19T08:24:04;99129.94;;;-0.49;61.19
27685;BME280;46113;50.130;8.526;2023-01-19T08:26:33;99131.22;;;-0.83;62.99
27685;BME280;46113;50.130;8.526;2023-01-19T08:29:02;99131.59;;;-1.14;63.48
27685;BME280;46113;50.130;8.526;2023-01-19T08:31:29;99135.00;;;-1.09;64.12
27685;BME280;46113;50.130;8.526;2023-01-19T08:33:56;99134.63;;;-1.53;64.47
27685;BME280;46113;50.130;8.526;2023-01-19T08:36:23;99138.31;;;-0.97;63.36
27685;BME280;46113;50.130;8.526;2023-01-19T08:38:50;99136.94;;;-1.25;64.33
27685;BME280;46113;50.130;8.526;2023-01-19T08:41:20;99131.88;;;-1.37;64.06
27685;BME280;46113;50.130;8.526;2023-01-19T08:43:49;99136.22;;;-1.39;65.47
27685;BME280;46113;50.130;8.526;2023-01-19T08:46:15;99142.69;;;-1.86;66.40
27685;BME280;46113;50.130;8.526;2023-01-19T08:48:43;99139.16;;;-1.77;66.47
27685;BME280;46113;50.130;8.526;2023-01-19T08:51:14;99139.09;;;-1.69;66.68
27685;BME280;46113;50.130;8.526;2023-01-19T08:53:42;99136.78;;;-1.14;65.05
27685;BME280;46113;50.130;8.526;2023-01-19T08:56:09;99147.19;;;-2.08;67.28
27685;BME280;46113;50.130;8.526;2023-01-19T08:58:40;99147.81;;;-1.75;66.80
27685;BME280;46113;50.130;8.526;2023-01-19T09:01:08;99149.91;;;-1.25;66.47
27685;BME280;46113;50.130;8.526;2023-01-19T09:03:39;99162.28;;;-1.52;66.53
27685;BME280;46113;50.130;8.526;2023-01-19T09:06:06;99156.19;;;-1.48;66.07
27685;BME280;46113;50.130;8.526;2023-01-19T09:08:34;99161.75;;;-1.02;65.20
27685;BME280;46113;50.130;8.526;2023-01-19T09:11:01;99167.78;;;-1.00;64.91
27685;BME280;46113;50.130;8.526;2023-01-19T09:13:27;99171.81;;;-1.52;65.62
27685;BME280;46113;50.130;8.526;2023-01-19T09:15:54;99169.53;;;-0.99;64.93
27685;BME280;46113;50.130;8.526;2023-01-19T09:18:22;99165.41;;;-1.19;65.94
27685;BME280;46113;50.130;8.526;2023-01-19T09:20:49;99168.09;;;-1.26;65.15
27685;BME280;46113;50.130;8.526;2023-01-19T09:23:19;99167.59;;;-1.66;66.89
27685;BME280;46113;50.130;8.526;2023-01-19T09:25:46;99168.19;;;-1.37;66.47
27685;BME280;46113;50.130;8.526;2023-01-19T09:28:15;99161.94;;;-1.18;66.15
27685;BME280;46113;50.130;8.526;2023-01-19T09:30:43;99162.00;;;-1.22;66.10
27685;BME280;46113;50.130;8.526;2023-01-19T09:33:13;99169.97;;;-1.41;66.12
27685;BME280;46113;50.130;8.526;2023-01-19T09:35:44;99168.13;;;-1.28;66.23
27685;BME280;46113;50.130;8.526;2023-01-19T09:38:12;99164.38;;;-1.04;65.52
27685;BME280;46113;50.130;8.526;2023-01-19T09:40:43;99161.19;;;-1.27;66.06
27685;BME280;46113;50.130;8.526;2023-01-19T09:48:47;99168.03;;;-1.22;65.93
27685;BME280;46113;50.130;8.526;2023-01-19T09:51:35;99165.56;;;-0.57;64.25
27685;BME280;46113;50.130;8.526;2023-01-19T09:54:28;99167.91;;;-1.09;65.54
27685;BME280;46113;50.130;8.526;2023-01-19T09:56:56;99166.06;;;-0.99;64.98
27685;BME280;46113;50.130;8.526;2023-01-19T09:59:30;99166.75;;;-0.82;64.99
27685;BME280;46113;50.130;8.526;2023-01-19T10:02:35;99168.75;;;-1.07;65.86
27685;BME280;46113;50.130;8.526;2023-01-19T10:05:06;99179.84;;;-0.91;66.02
27685;BME280;46113;50.130;8.526;2023-01-19T10:07:58;99167.84;;;-1.05;66.24
27685;BME280;46113;50.130;8.526;2023-01-19T10:10:38;99163.44;;;-0.96;66.65
27685;BME280;46113;50.130;8.526;2023-01-19T10:19:28;99169.19;;;-0.71;66.84
27685;BME280;46113;50.130;8.526;2023-01-19T10:22:02;99165.47;;;-0.51;66.08
27685;BME280;46113;50.130;8.526;2023-01-19T10:24:39;99165.88;;;-0.82;66.68
27685;BME280;46113;50.130;8.526;2023-01-19T10:27:29;99164.97;;;-0.81;66.99
27685;BME280;46113;50.130;8.526;2023-01-19T10:29:56;99161.13;;;-0.49;66.29
27685;BME280;46113;50.130;8.526;2023-01-19T10:32:32;99159.09;;;-0.28;65.74
27685;BME280;46113;50.130;8.526;2023-01-19T10:35:13;99162.97;;;0.01;65.23
27685;BME280;46113;50.130;8.526;2023-01-19T10:37:47;99162.41;;;-0.20;65.46
27685;BME280;46113;50.130;8.526;2023-01-19T10:43:33;99169.63;;;-0.38;64.95
27685;BME280;46113;50.130;8.526;2023-01-19T10:48:56;99167.88;;;-1.08;66.70
27685;BME280;46113;50.130;8.526;2023-01-19T10:51:23;99172.84;;;-0.86;66.54
27685;BME280;46113;50.130;8.526;2023-01-19T10:53:58;99170.16;;;-0.78;66.54
27685;BME280;46113;50.130;8.526;2023-01-19T10:56:35;99166.06;;;-0.98;67.24
27685;BME280;46113;50.130;8.526;2023-01-19T10:59:04;99169.78;;;-1.22;68.52
27685;BME280;46113;50.130;8.526;2023-01-19T11:01:32;99169.75;;;-1.21;69.17
27685;BME280;46113;50.130;8.526;2023-01-19T11:04:27;99166.44;;;-0.58;68.09
27685;BME280;46113;50.130;8.526;2023-01-19T11:07:17;99171.19;;;-0.93;68.21
27685;BME280;46113;50.130;8.526;2023-01-19T11:09:45;99174.94;;;-1.18;69.27
27685;BME280;46113;50.130;8.526;2023-01-19T11:12:21;99170.94;;;-0.71;68.03
27685;BME280;46113;50.130;8.526;2023-01-19T11:14:50;99173.03;;;-1.03;69.48
27685;BME280;46113;50.130;8.526;2023-01-19T11:17:26;99174.56;;;-0.86;68.85
27685;BME280;46113;50.130;8.526;2023-01-19T11:19:59;99174.38;;;-0.71;68.99
27685;BME280;46113;50.130;8.526;2023-01-19T11:22:32;99170.13;;;-0.77;69.18
27685;BME280;46113;50.130;8.526;2023-01-19T11:25:00;99171.06;;;-0.81;69.71
27685;BME280;46113;50.130;8.526;2023-01-19T11:27:28;99175.72;;;-1.12;71.07
27685;BME280;46113;50.130;8.526;2023-01-19T11:30:00;99170.22;;;-0.84;70.30
27685;BME280;46113;50.130;8.526;2023-01-19T11:32:30;99172.41;;;-1.24;70.88
27685;BME280;46113;50.130;8.526;2023-01-19T11:34:58;99170.88;;;-1.45;71.63
27685;BME280;46113;50.130;8.526;2023-01-19T11:37:30;99169.88;;;-1.32;71.62
27685;BME280;46113;50.130;8.526;2023-01-19T11:39:58;99175.28;;;-0.73;70.99
27685;BME280;46113;50.130;8.526;2023-01-19T11:42:27;99164.78;;;-0.67;70.40
27685;BME280;46113;50.130;8.526;2023-01-19T11:45:11;99171.19;;;-0.27;69.28
27685;BME280;46113;50.130;8.526;2023-01-19T11:47:46;99173.53;;;-0.73;70.24
27685;BME280;46113;50.130;8.526;2023-01-19T11:50:23;99160.94;;;-1.04;70.45
27685;BME280;46113;50.130;8.526;2023-01-19T11:53:13;99163.91;;;-0.65;69.95
27685;BME280;46113;50.130;8.526;2023-01-19T11:58:17;99159.06;;;-0.93;70.78
27685;BME280;46113;50.130;8.526;2023-01-19T12:00:45;99167.06;;;-1.10;71.32
27685;BME280;46113;50.130;8.526;2023-01-19T12:03:23;99161.38;;;-0.69;70.72
27685;BME280;46113;50.130;8.526;2023-01-19T12:05:54;99162.72;;;-0.40;69.62
27685;BME280;46113;50.130;8.526;2023-01-19T12:08:26;99168.03;;;-0.48;69.65
27685;BME280;46113;50.130;8.526;2023-01-19T12:10:57;99159.34;;;-0.48;70.80
27685;BME280;46113;50.130;8.526;2023-01-19T12:13:26;99167.28;;;-1.32;71.61
27685;BME280;46113;50.130;8.526;2023-01-19T12:15:58;99165.09;;;-0.91;70.95
27685;BME280;46113;50.130;8.526;2023-01-19T12:18:31;99167.69;;;-0.91;70.88
27685;BME280;46113;50.130;8.526;2023-01-19T12:20:59;99165.31;;;-1.09;71.81
27685;BME280;46113;50.130;8.526;2023-01-19T12:26:34;99169.88;;;-1.30;72.84
27685;BME280;46113;50.130;8.526;2023-01-19T12:29:12;99158.50;;;-1.20;71.94
27685;BME280;46113;50.130;8.526;2023-01-19T12:31:40;99158.47;;;-1.18;73.03
27685;BME280;46113;50.130;8.526;2023-01-19T12:36:59;99169.81;;;-1.27;72.80
27685;BME280;46113;50.130;8.526;2023-01-19T12:39:26;99158.38;;;-1.09;72.98
27685;BME280;46113;50.130;8.526;2023-01-19T12:42:13;99154.22;;;-1.24;73.06
27685;BME280;46113;50.130;8.526;2023-01-19T12:44:41;99152.56;;;-1.31;73.12
27685;BME280;46113;50.130;8.526;2023-01-19T12:49:42;99161.69;;;-0.97;73.17
27685;BME280;46113;50.130;8.526;2023-01-19T12:52:23;99163.38;;;-0.92;72.60
27685;BME280;46113;50.130;8.526;2023-01-19T13:02:55;99153.09;;;-1.03;74.34
27685;BME280;46113;50.130;8.526;2023-01-19T13:13:40;99154.31;;;-1.32;73.89
27685;BME280;46113;50.130;8.526;2023-01-19T13:21:39;99154.16;;;-1.19;73.51
27685;BME280;46113;50.130;8.526;2023-01-19T13:24:11;99155.91;;;-1.20;74.08
27685;BME280;46113;50.130;8.526;2023-01-19T13:29:24;99169.59;;;-1.05;72.54
27685;BME280;46113;50.130;8.526;2023-01-19T13:31:52;99164.38;;;-1.02;73.09
27685;BME280;46113;50.130;8.526;2023-01-19T13:34:25;99165.84;;;-0.81;71.28
27685;BME280;46113;50.130;8.526;2023-01-19T13:36:54;99174.28;;;-1.42;74.04
27685;BME280;46113;50.130;8.526;2023-01-19T13:39:32;99173.13;;;-1.11;73.33
27685;BME280;46113;50.130;8.526;2023-01-19T13:42:04;99176.94;;;-0.68;71.84
27685;BME280;46113;50.130;8.526;2023-01-19T13:44:45;99172.03;;;-0.90;72.92
27685;BME280;46113;50.130;8.526;2023-01-19T13:47:44;99176.94;;;-0.68;72.94
27685;BME280;46113;50.130;8.526;2023-01-19T13:50:38;99175.72;;;-1.09;74.18
27685;BME280;46113;50.130;8.526;2023-01-19T13:53:18;99180.66;;;-0.89;73.03
27685;BME280;46113;50.130;8.526;2023-01-19T13:55:46;99182.94;;;-1.39;74.26
27685;BME280;46113;50.130;8.526;2023-01-19T13:58:22;99182.25;;;-1.59;75.23
27685;BME280;46113;50.130;8.526;2023-01-19T14:00:49;99182.78;;;-1.25;74.34
27685;BME280;46113;50.130;8.526;2023-01-19T14:03:23;99187.28;;;-1.43;74.22
27685;BME280;46113;50.130;8.526;2023-01-19T14:05:52;99180.94;;;-1.14;74.09
27685;BME280;46113;50.130;8.526;2023-01-19T14:08:20;99193.19;;;-1.29;74.70
27685;BME280;46113;50.130;8.526;2023-01-19T14:13:30;99187.13;;;-1.26;75.37
27685;BME280;46113;50.130;8.526;2023-01-19T14:18:32;99193.97;;;-1.17;74.35
27685;BME280;46113;50.130;8.526;2023-01-19T14:21:05;99200.91;;;-1.19;75.08
27685;BME280;46113;50.130;8.526;2023-01-19T14:24:37;99194.91;;;-1.26;74.94
27685;BME280;46113;50.130;8.526;2023-01-19T14:26:53;99198.28;;;-1.18;74.58
27685;BME280;46113;50.130;8.526;2023-01-19T14:29:28;99207.81;;;-1.18;73.90
27685;BME280;46113;50.130;8.526;2023-01-19T14:32:19;99204.31;;;-1.16;74.88
27685;BME280;46113;50.130;8.526;2023-01-19T14:34:51;99206.50;;;-0.77;73.22
27685;BME280;46113;50.130;8.526;2023-01-19T14:37:48;99205.84;;;-0.96;73.67
27685;BME280;46113;50.130;8.526;2023-01-19T14:40:18;99211.19;;;-1.10;74.69
27685;BME280;46113;50.130;8.526;2023-01-19T14:42:59;99222.03;;;-1.55;75.90
27685;BME280;46113;50.130;8.526;2023-01-19T14:45:39;99215.84;;;-1.43;75.81
27685;BME280;46113;50.130;8.526;2023-01-19T14:48:32;99222.91;;;-1.58;76.54
27685;BME280;46113;50.130;8.526;2023-01-19T14:51:18;99220.25;;;-1.50;76.45
27685;BME280;46113;50.130;8.526;2023-01-19T14:53:48;99226.88;;;-1.21;75.30
27685;BME280;46113;50.130;8.526;2023-01-19T14:56:28;99230.47;;;-1.34;76.25
27685;BME280;46113;50.130;8.526;2023-01-19T14:58:56;99220.06;;;-1.31;75.98
27685;BME280;46113;50.130;8.526;2023-01-19T15:01:28;99226.06;;;-1.26;76.05
27685;BME280;46113;50.130;8.526;2023-01-19T15:03:57;99225.69;;;-0.88;74.87
27685;BME280;46113;50.130;8.526;2023-01-19T15:06:24;99226.56;;;-0.90;74.25
27685;BME280;46113;50.130;8.526;2023-01-19T15:08:52;99223.84;;;-0.80;73.58
27685;BME280;46113;50.130;8.526;2023-01-19T15:11:31;99226.69;;;-1.04;74.54
27685;BME280;46113;50.130;8.526;2023-01-19T15:13:59;99230.59;;;-0.64;72.89
27685;BME280;46113;50.130;8.526;2023-01-19T15:16:27;99236.00;;;-0.79;72.82
27685;BME280;46113;50.130;8.526;2023-01-19T15:18:55;99231.63;;;-0.79;73.49
27685;BME280;46113;50.130;8.526;2023-01-19T15:21:24;99232.25;;;-0.58;73.22
27685;BME280;46113;50.130;8.526;2023-01-19T15:23:54;99232.59;;;-0.84;73.35
27685;BME280;46113;50.130;8.526;2023-01-19T15:26:25;99238.63;;;-0.84;73.40
27685;BME280;46113;50.130;8.526;2023-01-19T15:28:52;99236.78;;;-0.74;74.01
27685;BME280;46113;50.130;8.526;2023-01-19T15:31:21;99246.47;;;-0.87;73.89
27685;BME280;46113;50.130;8.526;2023-01-19T15:33:48;99241.63;;;-0.43;72.91
27685;BME280;46113;50.130;8.526;2023-01-19T15:36:18;99248.88;;;-0.04;71.36
27685;BME280;46113;50.130;8.526;2023-01-19T15:38:45;99243.31;;;0.23;70.51
27685;BME280;46113;50.130;8.526;2023-01-19T15:41:30;99243.75;;;0.48;69.55
27685;BME280;46113;50.130;8.526;2023-01-19T15:43:57;99250.16;;;0.27;69.66
27685;BME280;46113;50.130;8.526;2023-01-19T15:46:24;99251.47;;;-0.02;70.70
27685;BME280;46113;50.130;8.526;2023-01-19T15:48:51;99243.38;;;0.16;70.69
27685;BME280;46113;50.130;8.526;2023-01-19T15:51:21;99249.41;;;-0.41;71.62
27685;BME280;46113;50.130;8.526;2023-01-19T15:53:49;99255.59;;;0.11;71.35
27685;BME280;46113;50.130;8.526;2023-01-19T15:56:20;99257.13;;;-0.38;72.11
27685;BME280;46113;50.130;8.526;2023-01-19T15:58:47;99251.19;;;-0.46;71.97
27685;BME280;46113;50.130;8.526;2023-01-19T16:01:18;99255.25;;;-0.25;71.66
27685;BME280;46113;50.130;8.526;2023-01-19T16:03:48;99259.59;;;-0.27;71.73
27685;BME280;46113;50.130;8.526;2023-01-19T16:06:15;99259.56;;;-0.24;71.49
27685;BME280;46113;50.130;8.526;2023-01-19T16:08:41;99263.25;;;-0.41;72.60
27685;BME280;46113;50.130;8.526;2023-01-19T16:11:11;99265.72;;;-1.08;73.82
27685;BME280;46113;50.130;8.526;2023-01-19T16:13:38;99266.69;;;-1.19;74.17
27685;BME280;46113;50.130;8.526;2023-01-19T16:16:08;99263.88;;;-0.98;74.52
27685;BME280;46113;50.130;8.526;2023-01-19T16:18:39;99270.78;;;-0.96;74.53
27685;BME280;46113;50.130;8.526;2023-01-19T16:21:05;99271.56;;;-0.84;73.91
27685;BME280;46113;50.130;8.526;2023-01-19T16:23:32;99269.19;;;-1.09;74.11
27685;BME280;46113;50.130;8.526;2023-01-19T16:26:04;99268.16;;;-0.91;73.30
27685;BME280;46113;50.130;8.526;2023-01-19T16:28:35;99278.56;;;-0.93;74.10
27685;BME280;46113;50.130;8.526;2023-01-19T16:31:03;99276.94;;;-1.08;73.94
27685;BME280;46113;50.130;8.526;2023-01-19T16:33:30;99277.00;;;-1.11;75.02
27685;BME280;46113;50.130;8.526;2023-01-19T16:38:45;99283.22;;;-1.27;75.18
27685;BME280;46113;50.130;8.526;2023-01-19T16:41:11;99280.34;;;-0.98;73.96
27685;BME280;46113;50.130;8.526;2023-01-19T16:43:38;99281.00;;;-0.77;73.63
27685;BME280;46113;50.130;8.526;2023-01-19T16:46:04;99279.09;;;-0.61;72.41
27685;BME280;46113;50.130;8.526;2023-01-19T16:48:31;99287.13;;;-0.84;73.34
27685;BME280;46113;50.130;8.526;2023-01-19T16:51:03;99284.63;;;-0.94;72.78
27685;BME280;46113;50.130;8.526;2023-01-19T16:53:32;99292.47;;;-1.00;73.22
27685;BME280;46113;50.130;8.526;2023-01-19T16:56:07;99292.38;;;-0.89;72.74
27685;BME280;46113;50.130;8.526;2023-01-19T16:58:33;99290.28;;;-0.56;72.40
27685;BME280;46113;50.130;8.526;2023-01-19T17:01:16;99293.44;;;-0.30;71.43
27685;BME280;46113;50.130;8.526;2023-01-19T17:03:45;99293.53;;;-0.38;71.68
27685;BME280;46113;50.130;8.526;2023-01-19T17:06:15;99298.44;;;-0.13;70.19
27685;BME280;46113;50.130;8.526;2023-01-19T17:08:46;99296.75;;;-0.19;70.21
27685;BME280;46113;50.130;8.526;2023-01-19T17:11:15;99296.28;;;-0.49;71.24
27685;BME280;46113;50.130;8.526;2023-01-19T17:13:52;99298.72;;;-0.37;71.45
27685;BME280;46113;50.130;8.526;2023-01-19T17:16:23;99304.28;;;-0.69;71.28
27685;BME280;46113;50.130;8.526;2023-01-19T17:18:50;99302.50;;;-0.66;71.15
27685;BME280;46113;50.130;8.526;2023-01-19T17:21:17;99304.44;;;-0.83;72.08
27685;BME280;46113;50.130;8.526;2023-01-19T17:23:46;99306.13;;;-0.79;72.38
27685;BME280;46113;50.130;8.526;2023-01-19T17:26:13;99305.88;;;-0.56;71.74
27685;BME280;46113;50.130;8.526;2023-01-19T17:28:40;99308.59;;;-0.68;71.63
27685;BME280;46113;50.130;8.526;2023-01-19T17:31:09;99302.03;;;-0.22;70.67
27685;BME280;46113;50.130;8.526;2023-01-19T17:33:37;99309.31;;;-0.52;71.45
27685;BME280;46113;50.130;8.526;2023-01-19T17:36:05;99312.41;;;-1.00;72.92
27685;BME280;46113;50.130;8.526;2023-01-19T17:38:33;99313.22;;;-0.98;72.79
27685;BME280;46113;50.130;8.526;2023-01-19T17:41:00;99310.84;;;-1.22;73.84
27685;BME280;46113;50.130;8.526;2023-01-19T17:43:29;99314.25;;;-1.17;74.14
27685;BME280;46113;50.130;8.526;2023-01-19T17:45:58;99319.13;;;-0.79;72.42
27685;BME280;46113;50.130;8.526;2023-01-19T17:48:26;99318.34;;;-0.92;72.95
27685;BME280;46113;50.130;8.526;2023-01-19T17:50:53;99322.56;;;-0.80;71.98
27685;BME280;46113;50.130;8.526;2023-01-19T17:53:20;99317.75;;;-0.34;71.28
27685;BME280;46113;50.130;8.526;2023-01-19T17:55:47;99327.09;;;-0.96;72.18
27685;BME280;46113;50.130;8.526;2023-01-19T17:58:13;99327.34;;;-0.38;71.31
27685;BME280;46113;50.130;8.526;2023-01-19T18:00:40;99327.63;;;-0.65;71.47
27685;BME280;46113;50.130;8.526;2023-01-19T18:03:06;99336.38;;;-0.75;72.07
27685;BME280;46113;50.130;8.526;2023-01-19T18:05:33;99329.28;;;-0.57;71.73
27685;BME280;46113;50.130;8.526;2023-01-19T18:07:59;99336.97;;;-0.46;71.12
27685;BME280;46113;50.130;8.526;2023-01-19T18:10:26;99328.56;;;-0.69;72.13
27685;BME280;46113;50.130;8.526;2023-01-19T18:12:52;99333.53;;;-0.50;71.60
27685;BME280;46113;50.130;8.526;2023-01-19T18:15:19;99337.50;;;-1.01;72.26
27685;BME280;46113;50.130;8.526;2023-01-19T18:17:45;99332.44;;;-1.18;73.18
27685;BME280;46113;50.130;8.526;2023-01-19T18:20:12;99328.66;;;-0.81;72.55
27685;BME280;46113;50.130;8.526;2023-01-19T18:22:39;99332.31;;;-1.01;73.30
27685;BME280;46113;50.130;8.526;2023-01-19T18:25:06;99326.34;;;-1.11;73.77
27685;BME280;46113;50.130;8.526;2023-01-19T18:27:32;99330.66;;;-1.13;73.48
27685;BME280;46113;50.130;8.526;2023-01-19T18:29:59;99329.06;;;-1.30;73.77
27685;BME280;46113;50.130;8.526;2023-01-19T18:32:25;99322.16;;;-1.29;74.41
27685;BME280;46113;50.130;8.526;2023-01-19T18:34:52;99318.56;;;-1.16;73.88
27685;BME280;46113;50.130;8.526;2023-01-19T18:37:24;99323.13;;;-1.39;73.75
27685;BME280;46113;50.130;8.526;2023-01-19T18:39:51;99324.97;;;-0.58;71.54
27685;BME280;46113;50.130;8.526;2023-01-19T18:42:23;99331.53;;;-1.09;73.17
27685;BME280;46113;50.130;8.526;2023-01-19T18:44:50;99340.91;;;-0.96;72.39
27685;BME280;46113;50.130;8.526;2023-01-19T18:47:16;99340.97;;;-1.02;72.65
27685;BME280;46113;50.130;8.526;2023-01-19T18:49:43;99342.00;;;-1.22;72.58
27685;BME280;46113;50.130;8.526;2023-01-19T18:52:09;99338.91;;;-0.66;71.18
27685;BME280;46113;50.130;8.526;2023-01-19T18:54:36;99342.94;;;-0.37;70.00
27685;BME280;46113;50.130;8.526;2023-01-19T18:57:03;99338.25;;;-0.10;69.13
27685;BME280;46113;50.130;8.526;2023-01-19T18:59:29;99347.66;;;0.02;68.20
27685;BME280;46113;50.130;8.526;2023-01-19T19:01:56;99352.00;;;0.02;68.45
27685;BME280;46113;50.130;8.526;2023-01-19T19:04:26;99351.81;;;0.16;68.19
27685;BME280;46113;50.130;8.526;2023-01-19T19:06:53;99353.75;;;0.01;68.08
27685;BME280;46113;50.130;8.526;2023-01-19T19:09:20;99347.97;;;-0.24;67.71
27685;BME280;46113;50.130;8.526;2023-01-19T19:11:47;99348.56;;;-0.79;69.80
27685;BME280;46113;50.130;8.526;2023-01-19T19:14:13;99354.84;;;-1.08;71.12
27685;BME280;46113;50.130;8.526;2023-01-19T19:16:40;99351.47;;;-1.16;71.26
27685;BME280;46113;50.130;8.526;2023-01-19T19:19:07;99352.44;;;-1.28;71.75
27685;BME280;46113;50.130;8.526;2023-01-19T19:21:37;99356.41;;;-0.83;70.85
27685;BME280;46113;50.130;8.526;2023-01-19T19:24:03;99355.19;;;-0.50;69.41
27685;BME280;46113;50.130;8.526;2023-01-19T19:26:32;99352.31;;;-0.25;68.84
27685;BME280;46113;50.130;8.526;2023-01-19T19:29:02;99346.31;;;-0.28;68.62
27685;BME280;46113;50.130;8.526;2023-01-19T19:31:29;99356.16;;;-0.58;69.58
27685;BME280;46113;50.130;8.526;2023-01-19T19:34:00;99355.22;;;-0.54;68.16